sensor_id;sensor_type;location;lat;lon;timestamp;P1;durP1;ratioP1;P2;durP2;ratioP2
15557;SDS011;7880;50.110;9.372;2023-05-01T00:02:35;2.8692307692307684;;;1.7692307692307692;;
15557;SDS011;7880;50.110;9.372;2023-05-01T00:07:45;2.3999999999999995;;;1.6999999999999995;;
15557;SDS011;7880;50.110;9.372;2023-05-01T00:12:42;4.038461538461538;;;2.169230769230769;;
15557;SDS011;7880;50.110;9.372;2023-05-01T00:17:46;4.33076923076923;;;1.7307692307692308;;
15557;SDS011;7880;50.110;9.372;2023-05-01T00:22:09;6.938461538461538;;;2.3538461538461535;;
15557;SDS011;7880;50.110;9.372;2023-05-01T00:27:12;2.1307692307692307;;;1.8000000000000005;;
15557;SDS011;7880;50.110;9.372;2023-05-01T00:32:20;3.2999999999999994;;;2.1000000000000005;;
15557;SDS011;7880;50.110;9.372;2023-05-01T00:37:27;7.661538461538461;;;2.1000000000000005;;
15557;SDS011;7880;50.110;9.372;2023-05-01T00:42:25;5.838461538461538;;;1.8000000000000005;;
15557;SDS011;7880;50.110;9.372;2023-05-01T00:47:34;5.707692307692307;;;2.0692307692307694;;
15557;SDS011;7880;50.110;9.372;2023-05-01T00:52:38;5.06923076923077;;;2.1999999999999997;;
15557;SDS011;7880;50.110;9.372;2023-05-01T00:57:40;6.907692307692309;;;2.3000000000000003;;
15557;SDS011;7880;50.110;9.372;2023-05-01T01:02:46;3.1384615384615393;;;1.8999999999999997;;
15557;SDS011;7880;50.110;9.372;2023-05-01T01:07:50;2.899999999999999;;;2.1000000000000005;;
15557;SDS011;7880;50.110;9.372;2023-05-01T01:12:55;10.099999999999998;;;2.230769230769231;;
15557;SDS011;7880;50.110;9.372;2023-05-01T01:18:06;3.9076923076923085;;;2.1307692307692307;;
15557;SDS011;7880;50.110;9.372;2023-05-01T01:23:13;3.2999999999999994;;;1.6307692307692305;;
15557;SDS011;7880;50.110;9.372;2023-05-01T01:28:16;3.023076923076924;;;1.9615384615384615;;
15557;SDS011;7880;50.110;9.372;2023-05-01T01:38:42;7.60769230769231;;;2.430769230769231;;
15557;SDS011;7880;50.110;9.372;2023-05-01T01:43:46;3.061538461538462;;;2.0;;
15557;SDS011;7880;50.110;9.372;2023-05-01T01:48:48;4.700000000000001;;;2.5461538461538464;;
15557;SDS011;7880;50.110;9.372;2023-05-01T01:54:00;2.9615384615384617;;;2.5;;
15557;SDS011;7880;50.110;9.372;2023-05-01T01:58:58;5.707692307692307;;;2.3000000000000003;;
15557;SDS011;7880;50.110;9.372;2023-05-01T02:04:04;15.153846153846153;;;2.8;;
15557;SDS011;7880;50.110;9.372;2023-05-01T02:09:10;3.7000000000000006;;;2.330769230769231;;
15557;SDS011;7880;50.110;9.372;2023-05-01T02:14:14;3.7307692307692317;;;2.230769230769231;;
15557;SDS011;7880;50.110;9.372;2023-05-01T02:19:17;5.823076923076924;;;2.5;;
15557;SDS011;7880;50.110;9.372;2023-05-01T02:24:23;3.7692307692307705;;;2.3999999999999995;;
15557;SDS011;7880;50.110;9.372;2023-05-01T02:29:27;3.153846153846154;;;2.3999999999999995;;
15557;SDS011;7880;50.110;9.372;2023-05-01T02:34:35;3.707692307692307;;;2.230769230769231;;
15557;SDS011;7880;50.110;9.372;2023-05-01T02:39:40;3.838461538461539;;;2.3000000000000003;;
15557;SDS011;7880;50.110;9.372;2023-05-01T02:44:42;6.207692307692307;;;2.969230769230769;;
15557;SDS011;7880;50.110;9.372;2023-05-01T02:49:47;5.5;;;2.7307692307692295;;
15557;SDS011;7880;50.110;9.372;2023-05-01T02:54:49;9.976923076923079;;;2.3615384615384616;;
15557;SDS011;7880;50.110;9.372;2023-05-01T03:00:09;7.238461538461536;;;2.7;;
15557;SDS011;7880;50.110;9.372;2023-05-01T03:04:59;4.16923076923077;;;2.669230769230769;;
15557;SDS011;7880;50.110;9.372;2023-05-01T03:10:08;6.707692307692307;;;2.7;;
15557;SDS011;7880;50.110;9.372;2023-05-01T03:15:12;8.03846153846154;;;4.06923076923077;;
15557;SDS011;7880;50.110;9.372;2023-05-01T03:20:15;3.5;;;2.630769230769231;;
15557;SDS011;7880;50.110;9.372;2023-05-01T03:25:18;5.53076923076923;;;3.2;;
15557;SDS011;7880;50.110;9.372;2023-05-01T03:30:32;4.561538461538462;;;2.8615384615384616;;
15557;SDS011;7880;50.110;9.372;2023-05-01T03:35:26;8.5;;;3.2307692307692295;;
15557;SDS011;7880;50.110;9.372;2023-05-01T03:40:30;4.869230769230769;;;3.2;;
15557;SDS011;7880;50.110;9.372;2023-05-01T03:45:34;6.469230769230771;;;3.469230769230769;;
15557;SDS011;7880;50.110;9.372;2023-05-01T03:50:38;5.63846153846154;;;3.2;;
15557;SDS011;7880;50.110;9.372;2023-05-01T03:55:49;4.769230769230769;;;3.399999999999999;;
15557;SDS011;7880;50.110;9.372;2023-05-01T04:00:45;6.369230769230768;;;3.2;;
15557;SDS011;7880;50.110;9.372;2023-05-01T04:05:52;4.33076923076923;;;3.0;;
15557;SDS011;7880;50.110;9.372;2023-05-01T04:10:54;6.06923076923077;;;3.7999999999999994;;
15557;SDS011;7880;50.110;9.372;2023-05-01T04:15:59;8.015384615384615;;;3.8307692307692305;;
15557;SDS011;7880;50.110;9.372;2023-05-01T04:21:02;8.36923076923077;;;4.299999999999999;;
15557;SDS011;7880;50.110;9.372;2023-05-01T04:26:05;6.953846153846152;;;3.7999999999999994;;
15557;SDS011;7880;50.110;9.372;2023-05-01T04:31:10;10.338461538461539;;;4.1000000000000005;;
15557;SDS011;7880;50.110;9.372;2023-05-01T04:36:15;6.269230769230767;;;4.2615384615384615;;
15557;SDS011;7880;50.110;9.372;2023-05-01T04:41:26;9.192307692307692;;;4.33076923076923;;
15557;SDS011;7880;50.110;9.372;2023-05-01T04:46:23;8.7;;;3.869230769230768;;
15557;SDS011;7880;50.110;9.372;2023-05-01T04:51:28;9.738461538461538;;;4.799999999999999;;
15557;SDS011;7880;50.110;9.372;2023-05-01T04:56:31;9.561538461538461;;;4.93076923076923;;
15557;SDS011;7880;50.110;9.372;2023-05-01T05:01:47;9.099999999999998;;;4.1000000000000005;;
15557;SDS011;7880;50.110;9.372;2023-05-01T05:06:43;7.746153846153845;;;4.06923076923077;;
15557;SDS011;7880;50.110;9.372;2023-05-01T05:11:45;9.93846153846154;;;4.200000000000001;;
15557;SDS011;7880;50.110;9.372;2023-05-01T05:16:48;7.769230769230769;;;4.730769230769231;;
15557;SDS011;7880;50.110;9.372;2023-05-01T05:21:52;7.10769230769231;;;4.299999999999999;;
15557;SDS011;7880;50.110;9.372;2023-05-01T05:26:57;6.938461538461538;;;4.430769230769231;;
15557;SDS011;7880;50.110;9.372;2023-05-01T05:32:06;8.846153846153847;;;4.469230769230769;;
15557;SDS011;7880;50.110;9.372;2023-05-01T05:37:06;6.507692307692308;;;4.269230769230769;;
15557;SDS011;7880;50.110;9.372;2023-05-01T05:42:11;6.299999999999998;;;4.130769230769232;;
15557;SDS011;7880;50.110;9.372;2023-05-01T05:47:15;6.3769230769230765;;;4.3769230769230765;;
15557;SDS011;7880;50.110;9.372;2023-05-01T05:52:19;13.969230769230771;;;4.93076923076923;;
15557;SDS011;7880;50.110;9.372;2023-05-01T05:57:24;10.13076923076923;;;5.53076923076923;;
15557;SDS011;7880;50.110;9.372;2023-05-01T06:02:28;12.061538461538458;;;4.630769230769232;;
15557;SDS011;7880;50.110;9.372;2023-05-01T06:07:33;8.284615384615384;;;5.4;;
15557;SDS011;7880;50.110;9.372;2023-05-01T06:12:39;12.069230769230767;;;5.969230769230771;;
15557;SDS011;7880;50.110;9.372;2023-05-01T06:17:40;7.269230769230769;;;4.6000000000000005;;
15557;SDS011;7880;50.110;9.372;2023-05-01T06:22:52;7.5307692307692315;;;4.5;;
15557;SDS011;7880;50.110;9.372;2023-05-01T06:27:52;9.415384615384617;;;5.0;;
15557;SDS011;7880;50.110;9.372;2023-05-01T06:32:53;7.592307692307691;;;4.061538461538462;;
15557;SDS011;7880;50.110;9.372;2023-05-01T06:37:57;6.938461538461538;;;4.8999999999999995;;
15557;SDS011;7880;50.110;9.372;2023-05-01T06:43:01;7.900000000000001;;;4.799999999999999;;
15557;SDS011;7880;50.110;9.372;2023-05-01T06:48:14;8.538461538461538;;;5.0;;
15557;SDS011;7880;50.110;9.372;2023-05-01T06:53:13;7.838461538461539;;;5.1692307692307695;;
15557;SDS011;7880;50.110;9.372;2023-05-01T06:58:16;7.846153846153846;;;4.630769230769232;;
15557;SDS011;7880;50.110;9.372;2023-05-01T07:03:20;8.476923076923075;;;4.33076923076923;;
15557;SDS011;7880;50.110;9.372;2023-05-01T07:08:23;7.615384615384613;;;4.346153846153846;;
15557;SDS011;7880;50.110;9.372;2023-05-01T07:13:27;6.415384615384618;;;4.723076923076923;;
15557;SDS011;7880;50.110;9.372;2023-05-01T07:18:33;5.700000000000002;;;4.200000000000001;;
15557;SDS011;7880;50.110;9.372;2023-05-01T07:23:36;7.269230769230769;;;4.5;;
15557;SDS011;7880;50.110;9.372;2023-05-01T07:28:42;6.038461538461541;;;4.6000000000000005;;
15557;SDS011;7880;50.110;9.372;2023-05-01T07:33:52;7.492307692307692;;;4.369230769230769;;
15557;SDS011;7880;50.110;9.372;2023-05-01T07:39:09;7.738461538461536;;;4.5;;
15557;SDS011;7880;50.110;9.372;2023-05-01T07:43:57;7.715384615384617;;;4.200000000000001;;
15557;SDS011;7880;50.110;9.372;2023-05-01T07:49:09;7.584615384615384;;;5.161538461538462;;
15557;SDS011;7880;50.110;9.372;2023-05-01T07:54:05;8.86923076923077;;;4.530769230769231;;
15557;SDS011;7880;50.110;9.372;2023-05-01T07:59:10;6.761538461538464;;;4.130769230769232;;
15557;SDS011;7880;50.110;9.372;2023-05-01T08:04:18;11.238461538461536;;;5.0;;
15557;SDS011;7880;50.110;9.372;2023-05-01T08:09:27;6.746153846153845;;;4.5;;
15557;SDS011;7880;50.110;9.372;2023-05-01T08:14:25;4.9923076923076914;;;4.33076923076923;;
15557;SDS011;7880;50.110;9.372;2023-05-01T08:19:32;6.261538461538464;;;3.8615384615384616;;
15557;SDS011;7880;50.110;9.372;2023-05-01T08:24:34;5.9;;;4.200000000000001;;
15557;SDS011;7880;50.110;9.372;2023-05-01T08:29:38;7.030769230769229;;;4.3999999999999995;;
15557;SDS011;7880;50.110;9.372;2023-05-01T08:34:43;6.438461538461538;;;4.0;;
15557;SDS011;7880;50.110;9.372;2023-05-01T08:39:50;5.684615384615384;;;4.0307692307692315;;
15557;SDS011;7880;50.110;9.372;2023-05-01T08:44:54;6.06923076923077;;;3.969230769230769;;
15557;SDS011;7880;50.110;9.372;2023-05-01T08:49:58;5.153846153846154;;;4.0;;
15557;SDS011;7880;50.110;9.372;2023-05-01T08:55:02;8.13846153846154;;;3.899999999999999;;
15557;SDS011;7880;50.110;9.372;2023-05-01T09:00:09;6.953846153846153;;;4.299999999999999;;
15557;SDS011;7880;50.110;9.372;2023-05-01T09:05:14;4.8999999999999995;;;3.530769230769231;;
15557;SDS011;7880;50.110;9.372;2023-05-01T09:10:17;7.43076923076923;;;4.3999999999999995;;
15557;SDS011;7880;50.110;9.372;2023-05-01T09:15:21;7.907692307692309;;;3.7999999999999994;;
15557;SDS011;7880;50.110;9.372;2023-05-01T09:20:25;6.338461538461538;;;4.200000000000001;;
15557;SDS011;7880;50.110;9.372;2023-05-01T09:25:30;9.038461538461538;;;4.6000000000000005;;
15557;SDS011;7880;50.110;9.372;2023-05-01T09:30:37;9.661538461538463;;;4.5;;
15557;SDS011;7880;50.110;9.372;2023-05-01T09:35:55;5.6230769230769235;;;3.530769230769231;;
15557;SDS011;7880;50.110;9.372;2023-05-01T09:40:51;4.96923076923077;;;3.7000000000000006;;
15557;SDS011;7880;50.110;9.372;2023-05-01T09:45:58;5.461538461538459;;;3.8615384615384616;;
15557;SDS011;7880;50.110;9.372;2023-05-01T09:51:00;5.3307692307692305;;;3.93076923076923;;
15557;SDS011;7880;50.110;9.372;2023-05-01T09:55:59;6.761538461538464;;;4.0;;
15557;SDS011;7880;50.110;9.372;2023-05-01T10:01:04;4.961538461538461;;;4.16923076923077;;
15557;SDS011;7880;50.110;9.372;2023-05-01T10:06:09;8.023076923076921;;;4.23076923076923;;
15557;SDS011;7880;50.110;9.372;2023-05-01T10:11:14;4.838461538461538;;;3.600000000000001;;
15557;SDS011;7880;50.110;9.372;2023-05-01T10:16:26;10.06153846153846;;;4.33076923076923;;
15557;SDS011;7880;50.110;9.372;2023-05-01T10:21:23;6.56923076923077;;;4.1000000000000005;;
15557;SDS011;7880;50.110;9.372;2023-05-01T10:26:27;6.5;;;4.430769230769231;;
15557;SDS011;7880;50.110;9.372;2023-05-01T10:30:34;5.523076923076925;;;3.961538461538461;;
15557;SDS011;7880;50.110;9.372;2023-05-01T10:35:42;4.661538461538462;;;3.3307692307692305;;
15557;SDS011;7880;50.110;9.372;2023-05-01T10:40:48;6.56923076923077;;;4.299999999999999;;
15557;SDS011;7880;50.110;9.372;2023-05-01T10:45:49;4.2384615384615385;;;3.2999999999999994;;
15557;SDS011;7880;50.110;9.372;2023-05-01T10:51:09;4.338461538461538;;;3.369230769230768;;
15557;SDS011;7880;50.110;9.372;2023-05-01T10:56:05;6.184615384615383;;;4.200000000000001;;
15557;SDS011;7880;50.110;9.372;2023-05-01T11:01:27;5.9;;;4.0;;
15557;SDS011;7880;50.110;9.372;2023-05-01T11:06:28;5.06923076923077;;;3.7000000000000006;;
15557;SDS011;7880;50.110;9.372;2023-05-01T11:11:45;6.530769230769229;;;3.792307692307692;;
15557;SDS011;7880;50.110;9.372;2023-05-01T11:16:42;5.200000000000001;;;3.7999999999999994;;
15557;SDS011;7880;50.110;9.372;2023-05-01T11:21:38;4.5;;;4.0;;
15557;SDS011;7880;50.110;9.372;2023-05-01T11:26:44;4.630769230769232;;;3.600000000000001;;
15557;SDS011;7880;50.110;9.372;2023-05-01T11:31:47;8.676923076923076;;;3.56923076923077;;
15557;SDS011;7880;50.110;9.372;2023-05-01T11:36:52;4.43076923076923;;;3.83076923076923;;
15557;SDS011;7880;50.110;9.372;2023-05-01T11:42:04;5.700000000000002;;;3.7307692307692295;;
15557;SDS011;7880;50.110;9.372;2023-05-01T11:47:06;3.7999999999999994;;;3.399999999999999;;
15557;SDS011;7880;50.110;9.372;2023-05-01T11:52:04;7.376923076923076;;;4.5;;
15557;SDS011;7880;50.110;9.372;2023-05-01T11:57:07;4.0;;;3.2999999999999994;;
15557;SDS011;7880;50.110;9.372;2023-05-01T12:02:16;3.399999999999999;;;3.100000000000001;;
15557;SDS011;7880;50.110;9.372;2023-05-01T12:07:20;6.938461538461538;;;3.530769230769231;;
15557;SDS011;7880;50.110;9.372;2023-05-01T12:12:21;5.438461538461538;;;3.7692307692307705;;
15557;SDS011;7880;50.110;9.372;2023-05-01T12:17:34;3.56923076923077;;;3.169230769230769;;
15557;SDS011;7880;50.110;9.372;2023-05-01T12:22:30;6.63846153846154;;;3.600000000000001;;
15557;SDS011;7880;50.110;9.372;2023-05-01T12:27:41;3.899999999999999;;;3.5;;
15557;SDS011;7880;50.110;9.372;2023-05-01T12:32:39;5.107692307692308;;;3.2692307692307705;;
15557;SDS011;7880;50.110;9.372;2023-05-01T12:37:47;6.246153846153847;;;3.7000000000000006;;
15557;SDS011;7880;50.110;9.372;2023-05-01T12:42:52;3.5;;;3.030769230769231;;
15557;SDS011;7880;50.110;9.372;2023-05-01T12:47:55;6.407692307692309;;;3.56923076923077;;
15557;SDS011;7880;50.110;9.372;2023-05-01T12:53:00;4.369230769230769;;;3.2;;
15557;SDS011;7880;50.110;9.372;2023-05-01T12:58:03;4.161538461538461;;;3.43076923076923;;
15557;SDS011;7880;50.110;9.372;2023-05-01T13:03:06;5.969230769230771;;;3.5;;
15557;SDS011;7880;50.110;9.372;2023-05-01T13:08:11;5.06923076923077;;;4.16923076923077;;
15557;SDS011;7880;50.110;9.372;2023-05-01T13:13:22;5.769230769230769;;;3.3307692307692305;;
15557;SDS011;7880;50.110;9.372;2023-05-01T13:18:23;4.5538461538461545;;;3.746153846153845;;
15557;SDS011;7880;50.110;9.372;2023-05-01T13:23:26;5.299999999999999;;;3.600000000000001;;
15557;SDS011;7880;50.110;9.372;2023-05-01T13:28:33;3.5923076923076915;;;3.2;;
15557;SDS011;7880;50.110;9.372;2023-05-01T13:33:36;5.769230769230769;;;3.7000000000000006;;
15557;SDS011;7880;50.110;9.372;2023-05-01T13:38:41;5.200000000000001;;;3.399999999999999;;
15557;SDS011;7880;50.110;9.372;2023-05-01T13:43:45;5.869230769230768;;;4.06923076923077;;
15557;SDS011;7880;50.110;9.372;2023-05-01T13:48:49;4.5;;;3.600000000000001;;
15557;SDS011;7880;50.110;9.372;2023-05-01T13:53:54;5.792307692307693;;;3.2999999999999994;;
15557;SDS011;7880;50.110;9.372;2023-05-01T13:59:02;4.6692307692307695;;;2.899999999999999;;
15557;SDS011;7880;50.110;9.372;2023-05-01T14:04:03;3.869230769230768;;;2.899999999999999;;
15557;SDS011;7880;50.110;9.372;2023-05-01T14:09:07;5.138461538461538;;;3.2999999999999994;;
15557;SDS011;7880;50.110;9.372;2023-05-01T14:14:10;3.7000000000000006;;;2.8;;
15557;SDS011;7880;50.110;9.372;2023-05-01T14:19:17;3.369230769230768;;;2.8692307692307684;;
15557;SDS011;7880;50.110;9.372;2023-05-01T14:24:21;5.746153846153845;;;3.0;;
15557;SDS011;7880;50.110;9.372;2023-05-01T14:29:27;3.5;;;2.661538461538462;;
15557;SDS011;7880;50.110;9.372;2023-05-01T14:34:31;3.6692307692307695;;;2.7692307692307705;;
15557;SDS011;7880;50.110;9.372;2023-05-01T14:39:42;4.569230769230769;;;2.7307692307692295;;
15557;SDS011;7880;50.110;9.372;2023-05-01T14:44:42;4.6692307692307695;;;2.530769230769231;;
15557;SDS011;7880;50.110;9.372;2023-05-01T14:49:48;3.7692307692307705;;;3.0;;
15557;SDS011;7880;50.110;9.372;2023-05-01T14:54:52;3.43076923076923;;;2.7307692307692295;;
15557;SDS011;7880;50.110;9.372;2023-05-01T14:59:56;4.8076923076923075;;;2.5;;
15557;SDS011;7880;50.110;9.372;2023-05-01T15:05:00;3.1923076923076925;;;2.8;;
15557;SDS011;7880;50.110;9.372;2023-05-01T15:10:06;4.630769230769232;;;2.3000000000000003;;
15557;SDS011;7880;50.110;9.372;2023-05-01T15:15:10;3.399999999999999;;;2.3999999999999995;;
15557;SDS011;7880;50.110;9.372;2023-05-01T15:20:15;4.338461538461538;;;2.3999999999999995;;
15557;SDS011;7880;50.110;9.372;2023-05-01T15:25:37;3.561538461538462;;;2.1000000000000005;;
15557;SDS011;7880;50.110;9.372;2023-05-01T15:30:42;4.738461538461538;;;2.6000000000000005;;
15557;SDS011;7880;50.110;9.372;2023-05-01T15:34:55;5.5076923076923086;;;2.3000000000000003;;
15557;SDS011;7880;50.110;9.372;2023-05-01T15:39:57;2.7307692307692295;;;1.8307692307692305;;
15557;SDS011;7880;50.110;9.372;2023-05-01T15:45:02;4.3999999999999995;;;2.6000000000000005;;
15557;SDS011;7880;50.110;9.372;2023-05-01T15:50:12;4.038461538461538;;;2.369230769230769;;
15557;SDS011;7880;50.110;9.372;2023-05-01T15:55:11;4.700000000000001;;;2.5;;
15557;SDS011;7880;50.110;9.372;2023-05-01T16:00:16;4.607692307692308;;;2.8692307692307684;;
15557;SDS011;7880;50.110;9.372;2023-05-01T16:05:20;3.030769230769231;;;2.1307692307692307;;
15557;SDS011;7880;50.110;9.372;2023-05-01T16:10:26;2.6384615384615384;;;2.269230769230769;;
15557;SDS011;7880;50.110;9.372;2023-05-01T16:15:31;3.5;;;2.230769230769231;;
15557;SDS011;7880;50.110;9.372;2023-05-01T16:20:38;4.469230769230769;;;2.5;;
15557;SDS011;7880;50.110;9.372;2023-05-01T16:25:41;4.838461538461538;;;2.269230769230769;;
15557;SDS011;7880;50.110;9.372;2023-05-01T16:30:46;4.16923076923077;;;2.5;;
15557;SDS011;7880;50.110;9.372;2023-05-01T16:35:48;2.969230769230769;;;2.569230769230769;;
15557;SDS011;7880;50.110;9.372;2023-05-01T16:40:55;4.938461538461538;;;2.3000000000000003;;
15557;SDS011;7880;50.110;9.372;2023-05-01T16:46:00;2.969230769230769;;;2.1000000000000005;;
15557;SDS011;7880;50.110;9.372;2023-05-01T16:51:05;3.1384615384615384;;;2.169230769230769;;
15557;SDS011;7880;50.110;9.372;2023-05-01T16:56:09;2.569230769230769;;;2.369230769230769;;
15557;SDS011;7880;50.110;9.372;2023-05-01T17:01:13;3.2;;;2.430769230769231;;
15557;SDS011;7880;50.110;9.372;2023-05-01T17:06:18;3.7999999999999994;;;2.0;;
15557;SDS011;7880;50.110;9.372;2023-05-01T17:11:23;2.5;;;2.3000000000000003;;
15557;SDS011;7880;50.110;9.372;2023-05-01T17:16:26;3.0384615384615383;;;2.469230769230769;;
15557;SDS011;7880;50.110;9.372;2023-05-01T17:21:32;2.6461538461538465;;;2.3999999999999995;;
15557;SDS011;7880;50.110;9.372;2023-05-01T17:26:35;3.738461538461539;;;2.6000000000000005;;
15557;SDS011;7880;50.110;9.372;2023-05-01T17:31:39;10.076923076923078;;;2.830769230769231;;
15557;SDS011;7880;50.110;9.372;2023-05-01T17:37:26;3.169230769230769;;;2.5;;
15557;SDS011;7880;50.110;9.372;2023-05-01T17:42:28;2.838461538461538;;;2.569230769230769;;
15557;SDS011;7880;50.110;9.372;2023-05-01T17:47:32;3.2;;;2.899999999999999;;
15557;SDS011;7880;50.110;9.372;2023-05-01T17:52:36;3.6538461538461537;;;3.030769230769231;;
15557;SDS011;7880;50.110;9.372;2023-05-01T17:57:40;3.292307692307692;;;2.3999999999999995;;
15557;SDS011;7880;50.110;9.372;2023-05-01T18:02:45;3.5923076923076915;;;2.230769230769231;;
15557;SDS011;7880;50.110;9.372;2023-05-01T18:07:50;4.869230769230769;;;2.430769230769231;;
15557;SDS011;7880;50.110;9.372;2023-05-01T18:12:55;4.2384615384615385;;;2.899999999999999;;
15557;SDS011;7880;50.110;9.372;2023-05-01T18:17:59;3.2;;;2.8;;
15557;SDS011;7880;50.110;9.372;2023-05-01T18:23:16;3.600000000000001;;;2.5;;
15557;SDS011;7880;50.110;9.372;2023-05-01T18:28:10;2.7;;;2.5;;
15557;SDS011;7880;50.110;9.372;2023-05-01T18:33:17;5.046153846153846;;;2.630769230769231;;
15557;SDS011;7880;50.110;9.372;2023-05-01T18:38:19;3.738461538461539;;;2.7;;
15557;SDS011;7880;50.110;9.372;2023-05-01T18:43:20;4.269230769230769;;;3.2307692307692295;;
15557;SDS011;7880;50.110;9.372;2023-05-01T18:48:25;6.338461538461538;;;3.7692307692307705;;
15557;SDS011;7880;50.110;9.372;2023-05-01T18:53:30;4.799999999999999;;;2.93076923076923;;
15557;SDS011;7880;50.110;9.372;2023-05-01T18:58:38;3.2;;;2.899999999999999;;
15557;SDS011;7880;50.110;9.372;2023-05-01T19:03:41;3.600000000000001;;;2.6000000000000005;;
15557;SDS011;7880;50.110;9.372;2023-05-01T19:08:42;3.030769230769231;;;2.7;;
15557;SDS011;7880;50.110;9.372;2023-05-01T19:13:53;2.969230769230769;;;2.669230769230769;;
15557;SDS011;7880;50.110;9.372;2023-05-01T19:18:59;2.630769230769231;;;2.430769230769231;;
15557;SDS011;7880;50.110;9.372;2023-05-01T19:23:58;3.2;;;2.899999999999999;;
15557;SDS011;7880;50.110;9.372;2023-05-01T19:29:02;4.3999999999999995;;;2.8;;
15557;SDS011;7880;50.110;9.372;2023-05-01T19:34:05;3.6384615384615384;;;2.8;;
15557;SDS011;7880;50.110;9.372;2023-05-01T19:39:09;4.938461538461538;;;2.969230769230769;;
15557;SDS011;7880;50.110;9.372;2023-05-01T19:44:16;5.6;;;4.0538461538461545;;
15557;SDS011;7880;50.110;9.372;2023-05-01T19:49:27;3.600000000000001;;;3.2999999999999994;;
15557;SDS011;7880;50.110;9.372;2023-05-01T19:54:34;6.076923076923077;;;3.6692307692307695;;
15557;SDS011;7880;50.110;9.372;2023-05-01T19:59:29;7.807692307692306;;;3.5;;
15557;SDS011;7880;50.110;9.372;2023-05-01T20:04:36;3.369230769230768;;;3.06923076923077;;
15557;SDS011;7880;50.110;9.372;2023-05-01T20:09:41;3.369230769230768;;;2.8;;
15557;SDS011;7880;50.110;9.372;2023-05-01T20:14:45;3.43076923076923;;;3.030769230769231;;
15557;SDS011;7880;50.110;9.372;2023-05-01T20:19:52;3.2;;;2.899999999999999;;
15557;SDS011;7880;50.110;9.372;2023-05-01T20:24:53;4.96923076923077;;;3.2;;
15557;SDS011;7880;50.110;9.372;2023-05-01T20:30:06;3.0;;;2.6000000000000005;;
15557;SDS011;7880;50.110;9.372;2023-05-01T20:35:08;3.438461538461538;;;2.969230769230769;;
15557;SDS011;7880;50.110;9.372;2023-05-01T20:38:58;4.6000000000000005;;;4.1000000000000005;;
15557;SDS011;7880;50.110;9.372;2023-05-01T20:44:04;4.96923076923077;;;3.7692307692307705;;
15557;SDS011;7880;50.110;9.372;2023-05-01T20:49:09;7.43076923076923;;;4.830769230769231;;
15557;SDS011;7880;50.110;9.372;2023-05-01T20:54:11;4.769230769230769;;;3.5;;
15557;SDS011;7880;50.110;9.372;2023-05-01T20:59:15;8.438461538461539;;;4.1000000000000005;;
15557;SDS011;7880;50.110;9.372;2023-05-01T21:04:18;6.369230769230768;;;4.33076923076923;;
15557;SDS011;7880;50.110;9.372;2023-05-01T21:09:23;6.269230769230769;;;4.799999999999999;;
15557;SDS011;7880;50.110;9.372;2023-05-01T21:14:28;8.007692307692306;;;4.6000000000000005;;
15557;SDS011;7880;50.110;9.372;2023-05-01T21:19:38;7.63846153846154;;;4.799999999999999;;
15557;SDS011;7880;50.110;9.372;2023-05-01T21:24:38;4.469230769230769;;;3.5;;
15557;SDS011;7880;50.110;9.372;2023-05-01T21:29:43;5.769230769230769;;;3.7000000000000006;;
15557;SDS011;7880;50.110;9.372;2023-05-01T21:34:45;4.9923076923076914;;;4.430769230769231;;
15557;SDS011;7880;50.110;9.372;2023-05-01T21:39:49;5.869230769230768;;;3.899999999999999;;
15557;SDS011;7880;50.110;9.372;2023-05-01T21:44:54;4.830769230769231;;;3.3307692307692305;;
15557;SDS011;7880;50.110;9.372;2023-05-01T21:49:58;6.807692307692306;;;4.369230769230769;;
15557;SDS011;7880;50.110;9.372;2023-05-01T21:55:09;9.107692307692309;;;4.6692307692307695;;
15557;SDS011;7880;50.110;9.372;2023-05-01T22:00:12;5.661538461538462;;;4.33076923076923;;
15557;SDS011;7880;50.110;9.372;2023-05-01T22:05:12;4.430769230769231;;;3.600000000000001;;
15557;SDS011;7880;50.110;9.372;2023-05-01T22:10:15;8.469230769230771;;;4.1000000000000005;;
15557;SDS011;7880;50.110;9.372;2023-05-01T22:15:20;9.838461538461539;;;4.5;;
15557;SDS011;7880;50.110;9.372;2023-05-01T22:20:22;6.1;;;3.7000000000000006;;
15557;SDS011;7880;50.110;9.372;2023-05-01T22:25:25;6.1;;;4.430769230769231;;
15557;SDS011;7880;50.110;9.372;2023-05-01T22:30:40;6.130769230769232;;;4.3999999999999995;;
15557;SDS011;7880;50.110;9.372;2023-05-01T22:35:34;6.815384615384615;;;4.33076923076923;;
15557;SDS011;7880;50.110;9.372;2023-05-01T22:40:40;6.669230769230769;;;3.899999999999999;;
15557;SDS011;7880;50.110;9.372;2023-05-01T22:45:45;5.4;;;4.638461538461538;;
15557;SDS011;7880;50.110;9.372;2023-05-01T22:50:46;9.0;;;4.130769230769232;;
15557;SDS011;7880;50.110;9.372;2023-05-01T22:55:49;8.453846153846152;;;5.730769230769231;;
15557;SDS011;7880;50.110;9.372;2023-05-01T23:01:04;7.969230769230771;;;4.93076923076923;;
15557;SDS011;7880;50.110;9.372;2023-05-01T23:05:59;8.5;;;5.200000000000001;;
15557;SDS011;7880;50.110;9.372;2023-05-01T23:11:07;8.13846153846154;;;6.030769230769229;;